Alida, Canada
Current Conditions -  °F | °C
As of 2:00 PM on Tuesday 21 Oct 2014 (Local Time) from CYEN Reporting Station
Few Clouds Few Clouds  
Wind Chill: 70°   Ceiling: Unl
Heat Index: 70°   Visibility: 15mi
Dew Point: 43°   Wind: 14mph
Humidity: 38%   Direction: 100°E
Pressure: 29.63"   Gusts: NA
Location:  49.38°N, 101.87°W
Report Text: CYEN 212000Z 10012KT 15SM FEW120 FEW250 21/06 A2963 RMK AC1CI1SLP040
Loading
Personal Weather Stations






























Interactive Weather Map New forecast layout! Learn more

10-Day Weather Forecast

Advertisements
Track Severe Weather on mobile